createdAt,value
2023-05-20T00:00:00.572Z,14.43
2023-05-20T00:05:00.803Z,14.02
2023-05-20T00:10:01.327Z,16.51
2023-05-20T00:15:02.508Z,15.31
2023-05-20T00:20:00.590Z,15.42
2023-05-20T00:25:04.985Z,15.27
2023-05-20T00:30:03.377Z,16.08
2023-05-20T00:35:00.543Z,16.58
2023-05-20T00:40:00.849Z,16.31
2023-05-20T00:45:00.911Z,16.96
2023-05-20T00:50:00.729Z,17.92
2023-05-20T00:55:02.210Z,15.70
2023-05-20T01:00:02.226Z,15.92
2023-05-20T01:05:00.545Z,17.03
2023-05-20T01:10:03.334Z,17.45
2023-05-20T01:15:00.756Z,17.78
2023-05-20T01:20:01.266Z,16.61
2023-05-20T01:25:05.395Z,18.40
2023-05-20T01:30:00.480Z,17.57
2023-05-20T01:35:00.712Z,16.76
2023-05-20T01:40:00.751Z,16.01
2023-05-20T01:45:00.546Z,16.81
2023-05-20T01:50:00.454Z,18.23
2023-05-20T01:55:01.219Z,17.46
2023-05-20T02:00:01.761Z,17.41
2023-05-20T02:05:00.529Z,18.18
2023-05-20T02:10:00.820Z,17.83
2023-05-20T02:15:00.637Z,18.68
2023-05-20T02:20:00.585Z,17.76
2023-05-20T02:25:06.881Z,16.23
2023-05-20T02:30:00.470Z,18.55
2023-05-20T02:35:00.588Z,19.50
2023-05-20T02:40:00.678Z,21.50
2023-05-20T02:45:00.499Z,20.15
2023-05-20T02:50:00.465Z,21.84
2023-05-20T02:55:00.993Z,20.06
2023-05-20T03:00:01.336Z,20.99
2023-05-20T03:05:00.594Z,20.93
2023-05-20T03:10:00.895Z,19.71
2023-05-20T03:15:00.584Z,20.77
2023-05-20T03:20:00.777Z,20.53
2023-05-20T03:25:04.306Z,21.63
2023-05-20T03:35:00.722Z,23.48
2023-05-20T03:40:00.493Z,22.22
2023-05-20T03:45:00.574Z,23.01
2023-05-20T03:50:00.792Z,20.97
2023-05-20T03:55:00.509Z,23.24
2023-05-20T04:00:00.818Z,22.26
2023-05-20T04:05:00.712Z,21.66
2023-05-20T04:10:00.635Z,23.01
2023-05-20T04:15:00.949Z,22.80
2023-05-20T04:20:00.628Z,23.20
2023-05-20T04:25:02.903Z,23.77
2023-05-20T04:30:02.964Z,23.59
2023-05-20T04:35:00.638Z,23.83
2023-05-20T04:40:02.736Z,24.76
2023-05-20T04:45:00.567Z,24.75
2023-05-20T04:50:00.685Z,25.43
2023-05-20T04:55:01.076Z,25.17
2023-05-20T05:00:00.616Z,24.58
2023-05-20T05:05:02.185Z,25.77
2023-05-20T05:10:00.586Z,23.94
2023-05-20T05:15:01.370Z,23.79
2023-05-20T05:20:00.757Z,22.72
2023-05-20T05:25:03.375Z,21.01
2023-05-20T05:30:00.481Z,23.03
2023-05-20T05:35:00.771Z,22.35
2023-05-20T05:40:03.173Z,21.88
2023-05-20T05:45:00.581Z,21.82
2023-05-20T05:50:01.675Z,20.70
2023-05-20T05:55:00.768Z,20.32
2023-05-20T06:00:00.553Z,20.66
2023-05-20T06:05:03.780Z,21.18
2023-05-20T06:10:00.549Z,20.84
2023-05-20T06:15:02.036Z,20.54
2023-05-20T06:20:00.823Z,20.88
2023-05-20T06:25:03.087Z,19.41
2023-05-20T06:30:00.484Z,19.98
2023-05-20T06:35:00.762Z,19.07
2023-05-20T06:40:00.863Z,18.66
2023-05-20T06:45:00.603Z,19.06
2023-05-20T06:50:00.556Z,17.89
2023-05-20T06:55:00.636Z,19.14
2023-05-20T07:00:00.672Z,18.48
2023-05-20T07:05:00.695Z,17.93
2023-05-20T07:10:00.538Z,18.52
2023-05-20T07:15:00.632Z,18.58
2023-05-20T07:20:02.207Z,19.13
2023-05-20T07:25:00.497Z,16.95
2023-05-20T07:30:01.024Z,17.85
2023-05-20T07:35:00.525Z,16.91
2023-05-20T07:40:00.637Z,18.22
2023-05-20T07:45:00.973Z,17.42
2023-05-20T07:50:00.675Z,18.33
2023-05-20T07:55:00.958Z,16.97
2023-05-20T08:00:01.599Z,17.59
2023-05-20T08:05:00.642Z,17.55
2023-05-20T08:10:01.778Z,19.04
2023-05-20T08:15:00.513Z,20.78
2023-05-20T08:20:02.246Z,19.40
2023-05-20T08:25:01.007Z,20.63
2023-05-20T08:30:03.001Z,20.59
2023-05-20T08:35:00.545Z,24.45
2023-05-20T08:40:01.362Z,31.86
2023-05-20T08:45:00.989Z,21.32
2023-05-20T08:50:01.302Z,16.36
2023-05-20T08:55:01.672Z,16.62
2023-05-20T09:00:00.548Z,18.06
2023-05-20T09:05:01.131Z,14.18
2023-05-20T09:10:00.555Z,15.75
2023-05-20T09:15:00.630Z,15.88
2023-05-20T09:20:01.805Z,13.30
2023-05-20T09:25:00.481Z,13.72
2023-05-20T09:30:00.714Z,12.50
2023-05-20T09:35:01.679Z,14.84
2023-05-20T09:40:00.713Z,12.99
2023-05-20T09:45:00.899Z,12.57
2023-05-20T09:50:00.799Z,12.46
2023-05-20T09:55:01.022Z,11.55
2023-05-20T10:00:02.707Z,13.21
2023-05-20T10:05:00.582Z,11.59
2023-05-20T10:10:01.284Z,11.34
2023-05-20T10:15:01.831Z,12.08
2023-05-20T10:20:00.720Z,11.69
2023-05-20T10:25:03.670Z,10.53
2023-05-20T10:30:00.975Z,11.87
2023-05-20T10:35:00.629Z,11.58
2023-05-20T10:40:00.604Z,10.53
2023-05-20T10:45:01.494Z,10.73
2023-05-20T10:50:00.530Z,9.97
2023-05-20T10:55:01.516Z,9.26
2023-05-20T11:00:00.644Z,9.05
2023-05-20T11:05:00.729Z,9.97
2023-05-20T11:10:00.654Z,8.25
2023-05-20T11:15:00.820Z,7.91
2023-05-20T11:20:01.086Z,8.76
2023-05-20T11:25:00.499Z,9.37
2023-05-20T11:30:00.944Z,9.38
2023-05-20T11:35:00.992Z,8.31
2023-05-20T11:40:02.389Z,9.40
2023-05-20T11:45:01.271Z,9.11
2023-05-20T11:50:00.715Z,9.03
2023-05-20T11:55:00.518Z,8.57
2023-05-20T12:00:00.593Z,8.91
2023-05-20T12:05:00.874Z,9.22
2023-05-20T12:10:00.602Z,9.92
2023-05-20T12:15:01.325Z,16.87
2023-05-20T12:20:02.557Z,8.38
2023-05-20T12:25:00.591Z,8.65
2023-05-20T12:30:00.658Z,10.39
2023-05-20T12:35:00.715Z,9.97
2023-05-20T12:40:00.657Z,9.67
2023-05-20T12:45:00.665Z,9.74
2023-05-20T12:50:00.884Z,10.01
2023-05-20T12:55:00.478Z,9.11
2023-05-20T13:00:00.846Z,10.21
2023-05-20T13:05:00.572Z,9.07
2023-05-20T13:10:00.631Z,8.86
2023-05-20T13:15:02.918Z,9.60
2023-05-20T13:20:00.580Z,10.76
2023-05-20T13:25:04.645Z,10.14
2023-05-20T13:30:01.343Z,11.27
2023-05-20T13:35:00.582Z,10.17
2023-05-20T13:40:00.852Z,10.17
2023-05-20T13:45:00.908Z,10.08
2023-05-20T13:50:03.251Z,9.31
2023-05-20T13:55:00.508Z,9.14
2023-05-20T14:00:00.626Z,9.17
2023-05-20T14:05:00.583Z,10.91
2023-05-20T14:10:01.178Z,9.12
2023-05-20T14:15:00.576Z,9.97
2023-05-20T14:20:00.863Z,9.79
2023-05-20T14:25:05.164Z,10.20
2023-05-20T14:30:00.531Z,10.55
2023-05-20T14:35:00.618Z,10.64
2023-05-20T14:40:00.684Z,10.46
2023-05-20T14:45:00.573Z,9.15
2023-05-20T14:50:01.834Z,9.12
2023-05-20T14:55:00.540Z,9.56
2023-05-20T15:00:02.237Z,9.53
2023-05-20T15:05:00.604Z,11.17
2023-05-20T15:10:01.188Z,9.18
2023-05-20T15:15:02.422Z,11.36
2023-05-20T15:20:02.557Z,9.26
2023-05-20T15:25:00.561Z,10.42
2023-05-20T15:30:00.800Z,10.14
2023-05-20T15:35:02.647Z,11.11
2023-05-20T15:40:00.545Z,13.01
2023-05-20T15:45:03.853Z,13.13
2023-05-20T15:50:00.693Z,10.50
2023-05-20T15:55:01.596Z,10.15
2023-05-20T16:00:00.916Z,10.81
2023-05-20T16:05:00.555Z,10.05
2023-05-20T16:10:01.567Z,11.72
2023-05-20T16:15:00.566Z,10.53
2023-05-20T16:20:00.751Z,10.03
2023-05-20T16:25:03.453Z,11.81
2023-05-20T16:30:00.594Z,11.54
2023-05-20T16:35:00.660Z,10.76
2023-05-20T16:40:00.564Z,12.71
2023-05-20T16:45:00.577Z,11.07
2023-05-20T16:50:00.606Z,11.23
2023-05-20T16:55:00.538Z,13.80
2023-05-20T17:00:01.652Z,12.54
2023-05-20T17:05:00.571Z,11.36
2023-05-20T17:10:01.790Z,10.46
2023-05-20T17:15:00.725Z,10.98
2023-05-20T17:20:00.616Z,11.44
2023-05-20T17:25:03.576Z,12.17
2023-05-20T17:30:00.685Z,11.22
2023-05-20T17:35:00.574Z,10.84
2023-05-20T17:40:01.392Z,12.61
2023-05-20T17:45:00.620Z,11.09
2023-05-20T17:50:00.674Z,12.08
2023-05-20T17:55:00.571Z,12.07
2023-05-20T18:00:01.444Z,11.14
2023-05-20T18:05:00.569Z,12.64
2023-05-20T18:10:00.658Z,11.28
2023-05-20T18:15:00.592Z,12.14
2023-05-20T18:20:00.709Z,13.12
2023-05-20T18:25:04.348Z,11.76
2023-05-20T18:30:00.829Z,12.31
2023-05-20T18:35:01.474Z,12.26
2023-05-20T18:40:00.577Z,12.41
2023-05-20T18:45:00.657Z,12.16
2023-05-20T18:50:00.565Z,13.88
2023-05-20T18:55:00.667Z,18.02
2023-05-20T19:00:00.485Z,13.36
2023-05-20T19:05:00.630Z,13.24
2023-05-20T19:10:00.645Z,14.88
2023-05-20T19:15:00.933Z,30.92
2023-05-20T19:20:00.591Z,20.73
2023-05-20T19:25:04.084Z,15.29
2023-05-20T19:30:01.102Z,16.93
2023-05-20T19:35:00.692Z,14.07
2023-05-20T19:40:00.805Z,15.91
2023-05-20T19:45:00.550Z,14.90
2023-05-20T19:50:00.560Z,14.13
2023-05-20T19:55:01.391Z,13.59
2023-05-20T20:00:00.746Z,18.74
2023-05-20T20:05:00.770Z,14.15
2023-05-20T20:10:00.685Z,15.74
2023-05-20T20:15:00.649Z,13.47
2023-05-20T20:20:00.630Z,14.05
2023-05-20T20:25:03.465Z,15.98
2023-05-20T20:30:00.488Z,13.72
2023-05-20T20:35:00.673Z,14.94
2023-05-20T20:40:01.272Z,14.26
2023-05-20T20:45:00.821Z,17.91
2023-05-20T20:50:02.733Z,18.90
2023-05-20T20:55:00.592Z,15.53
2023-05-20T21:00:00.606Z,14.29
2023-05-20T21:05:00.819Z,23.41
2023-05-20T21:10:00.491Z,18.20
2023-05-20T21:15:01.118Z,16.83
2023-05-20T21:20:01.763Z,16.89
2023-05-20T21:25:00.500Z,16.18
2023-05-20T21:30:01.481Z,14.86
2023-05-20T21:35:00.569Z,15.59
2023-05-20T21:40:00.586Z,15.93
2023-05-20T21:45:00.788Z,24.03
2023-05-20T21:50:00.591Z,16.78
2023-05-20T21:55:00.614Z,16.17
2023-05-20T22:00:00.782Z,19.02
2023-05-20T22:05:00.769Z,16.49
2023-05-20T22:10:00.554Z,16.34
2023-05-20T22:15:00.654Z,17.68
2023-05-20T22:20:01.951Z,16.06
2023-05-20T22:25:00.491Z,32.60
2023-05-20T22:30:00.643Z,17.25
2023-05-20T22:35:00.826Z,22.41
2023-05-20T22:40:00.945Z,20.40
2023-05-20T22:45:00.572Z,17.56
2023-05-20T22:50:01.812Z,16.99
2023-05-20T22:55:00.568Z,15.22
2023-05-20T23:05:00.280Z,29.85
2023-05-20T23:10:01.099Z,21.59
2023-05-20T23:15:00.632Z,16.47
2023-05-20T23:20:00.529Z,18.70
2023-05-20T23:25:00.294Z,17.79
2023-05-20T23:30:00.621Z,19.33
2023-05-20T23:35:00.268Z,18.37
2023-05-20T23:40:00.413Z,16.42
2023-05-20T23:45:00.420Z,16.67
2023-05-20T23:50:00.341Z,25.29
2023-05-20T23:55:00.442Z,17.91
